K88

Allen County Airport

Iola, Kansas, USA
METAR KK88 210935Z AUTO 00000KT 10SM CLR 21/20 A2999 RMK AO1 T02070197
Observed Flight Rules
Jul-21 @ 09:35 UTC (21 minutes ago) Visual Flight Rules
Visibility Clouds
10 miles
  • Clear skies
Temperatures Readings
Current 21°C / 70°F
Dewpoint 20°C / 68°F
Humidity 94%
Altimeter 29.99" Hg
Pressure 1016 hPa
Elevation 309
METAR KK88 210935Z AUTO 00000KT 10SM CLR 21/20 A2999 RMK AO1 T02070197
Observed Flight Rules
Jul-21 @ 09:35 UTC
(21 minutes ago)
VFR
Clouds
  • Clear skies
Temperature Dewpoint
21°C / 70°F 20°C / 68°F
Humidity Altimeter Pressure
94% 29.99" Hg 1016 hPa